createdAt,value
2019-02-19T00:02:21.646Z,99.90
2019-02-19T00:04:51.929Z,99.90
2019-02-19T00:07:20.389Z,99.90
2019-02-19T00:09:48.931Z,99.90
2019-02-19T00:12:17.470Z,99.90
2019-02-19T00:14:45.921Z,99.90
2019-02-19T00:17:14.549Z,99.90
2019-02-19T00:19:43.070Z,99.90
2019-02-19T00:22:11.619Z,99.90
2019-02-19T00:24:40.143Z,99.90
2019-02-19T00:27:08.618Z,99.90
2019-02-19T00:29:37.157Z,99.90
2019-02-19T00:32:05.678Z,99.90
2019-02-19T00:34:34.154Z,99.90
2019-02-19T00:37:02.684Z,99.90
2019-02-19T00:39:31.296Z,99.90
2019-02-19T00:41:59.781Z,99.90
2019-02-19T00:44:28.302Z,99.90
2019-02-19T00:46:56.894Z,99.90
2019-02-19T00:49:25.358Z,99.90
2019-02-19T00:51:53.902Z,99.90
2019-02-19T00:54:22.454Z,99.90
2019-02-19T00:56:51.010Z,99.90
2019-02-19T00:59:19.548Z,99.90
2019-02-19T01:01:48.104Z,99.90
2019-02-19T01:04:16.717Z,99.90
2019-02-19T01:06:45.241Z,99.90
2019-02-19T01:09:13.915Z,99.90
2019-02-19T01:11:42.550Z,99.90
2019-02-19T01:14:11.149Z,99.90
2019-02-19T01:16:39.696Z,99.90
2019-02-19T01:19:08.255Z,99.90
2019-02-19T01:21:36.759Z,99.90
2019-02-19T01:24:05.306Z,99.90
2019-02-19T01:26:33.831Z,99.90
2019-02-19T01:29:02.370Z,99.90
2019-02-19T01:31:30.894Z,99.90
2019-02-19T01:33:59.435Z,99.90
2019-02-19T01:36:28.026Z,99.90
2019-02-19T01:38:56.574Z,99.90
2019-02-19T01:41:25.023Z,99.90
2019-02-19T01:43:53.510Z,99.90
2019-02-19T01:46:21.958Z,99.90
2019-02-19T01:48:50.488Z,99.90
2019-02-19T01:51:19.042Z,99.90
2019-02-19T01:53:47.490Z,99.90
2019-02-19T01:56:16.015Z,99.90
2019-02-19T01:58:44.555Z,99.90
2019-02-19T02:01:12.998Z,99.90
2019-02-19T02:03:41.478Z,99.90
2019-02-19T02:06:09.928Z,99.90
2019-02-19T02:08:38.451Z,99.90
2019-02-19T02:11:07.002Z,99.90
2019-02-19T02:13:35.446Z,99.90
2019-02-19T02:16:03.971Z,99.90
2019-02-19T02:18:32.590Z,99.90
2019-02-19T02:21:01.183Z,99.90
2019-02-19T02:23:29.667Z,99.90
2019-02-19T02:25:58.190Z,99.90
2019-02-19T02:28:26.738Z,99.90
2019-02-19T02:30:55.262Z,99.90
2019-02-19T02:33:23.815Z,99.90
2019-02-19T02:35:52.339Z,99.90
2019-02-19T02:38:20.871Z,99.90
2019-02-19T02:40:49.410Z,99.90
2019-02-19T02:43:17.945Z,99.90
2019-02-19T02:45:53.088Z,99.90
2019-02-19T02:48:16.662Z,99.90
2019-02-19T02:50:45.196Z,99.90
2019-02-19T02:53:13.734Z,99.90
2019-02-19T02:55:42.258Z,99.90
2019-02-19T02:58:10.829Z,99.90
2019-02-19T03:00:39.363Z,99.90
2019-02-19T03:03:07.894Z,99.90
2019-02-19T03:05:39.121Z,99.90
2019-02-19T03:08:09.220Z,99.90
2019-02-19T03:10:37.674Z,99.90
2019-02-19T03:13:06.206Z,99.90
2019-02-19T03:15:34.731Z,99.90
2019-02-19T03:18:03.255Z,99.90
2019-02-19T03:20:31.794Z,99.90
2019-02-19T03:23:00.319Z,99.90
2019-02-19T03:25:28.859Z,99.90
2019-02-19T03:27:57.399Z,99.90
2019-02-19T03:30:25.938Z,99.90
2019-02-19T03:32:54.459Z,99.90
2019-02-19T03:35:23.000Z,99.90
2019-02-19T03:37:51.524Z,99.90
2019-02-19T03:40:20.065Z,99.90
2019-02-19T03:42:48.591Z,99.90
2019-02-19T03:45:17.129Z,99.90
2019-02-19T03:47:45.672Z,99.90
2019-02-19T03:50:14.194Z,99.90
2019-02-19T03:52:42.714Z,99.90
2019-02-19T03:55:11.184Z,99.90
2019-02-19T03:57:39.866Z,99.90
2019-02-19T04:00:09.233Z,99.90
2019-02-19T04:02:37.859Z,99.90
2019-02-19T04:05:06.522Z,99.90
2019-02-19T04:07:35.068Z,99.90
2019-02-19T04:10:05.036Z,99.90
2019-02-19T04:12:33.734Z,99.90
2019-02-19T04:15:02.254Z,99.90
2019-02-19T04:17:30.711Z,99.90
2019-02-19T04:19:59.247Z,99.90
2019-02-19T04:22:27.772Z,99.90
2019-02-19T04:24:56.320Z,99.90
2019-02-19T04:27:24.838Z,99.90
2019-02-19T04:29:53.298Z,99.90
2019-02-19T04:32:21.833Z,99.90
2019-02-19T04:34:50.349Z,99.90
2019-02-19T04:37:18.868Z,99.90
2019-02-19T04:39:47.389Z,99.90
2019-02-19T04:42:15.913Z,99.90
2019-02-19T04:44:44.475Z,99.90
2019-02-19T04:47:13.083Z,99.90
2019-02-19T04:49:41.631Z,99.90
2019-02-19T04:52:10.159Z,99.90
2019-02-19T04:54:38.678Z,99.90
2019-02-19T04:57:07.181Z,99.90
2019-02-19T04:59:36.236Z,99.90
2019-02-19T05:02:04.812Z,99.90
2019-02-19T05:04:33.355Z,99.90
2019-02-19T05:07:01.877Z,99.90
2019-02-19T05:09:30.420Z,99.90
2019-02-19T05:11:58.887Z,99.90
2019-02-19T05:14:27.506Z,99.90
2019-02-19T05:16:55.975Z,99.90
2019-02-19T05:19:24.567Z,99.90
2019-02-19T05:21:53.044Z,99.90
2019-02-19T05:24:21.499Z,99.90
2019-02-19T05:26:50.022Z,99.90
2019-02-19T05:29:18.567Z,99.90
2019-02-19T05:31:47.091Z,99.90
2019-02-19T05:34:15.634Z,99.90
2019-02-19T05:36:44.104Z,99.90
2019-02-19T05:39:12.629Z,99.90
2019-02-19T05:41:41.173Z,99.90
2019-02-19T05:44:09.695Z,99.90
2019-02-19T05:46:38.223Z,99.90
2019-02-19T05:49:06.776Z,99.90
2019-02-19T05:51:35.296Z,99.90
2019-02-19T05:54:03.902Z,99.90
2019-02-19T05:56:32.430Z,99.90
2019-02-19T05:59:00.964Z,99.90
2019-02-19T06:01:29.483Z,99.90
2019-02-19T06:04:00.444Z,99.90
2019-02-19T06:06:31.448Z,99.90
2019-02-19T06:08:59.959Z,99.90
2019-02-19T06:11:28.491Z,99.90
2019-02-19T06:13:57.011Z,99.90
2019-02-19T06:16:25.562Z,99.90
2019-02-19T06:18:54.091Z,99.90
2019-02-19T06:21:22.614Z,99.90
2019-02-19T06:23:52.657Z,99.90
2019-02-19T06:26:21.616Z,99.90
2019-02-19T06:28:50.142Z,99.90
2019-02-19T06:31:18.690Z,99.90
2019-02-19T06:33:47.140Z,99.90
2019-02-19T06:36:15.678Z,99.90
2019-02-19T06:38:44.138Z,99.90
2019-02-19T06:41:12.661Z,99.90
2019-02-19T06:43:41.202Z,99.90
2019-02-19T06:46:09.807Z,99.90
2019-02-19T06:48:38.325Z,99.90
2019-02-19T06:51:06.799Z,99.90
2019-02-19T06:53:35.323Z,99.90
2019-02-19T06:56:03.842Z,99.90
2019-02-19T06:58:32.527Z,99.90
2019-02-19T07:01:01.110Z,99.90
2019-02-19T07:03:31.315Z,99.90
2019-02-19T07:05:59.769Z,99.90
2019-02-19T07:08:28.351Z,99.90
2019-02-19T07:10:56.912Z,99.90
2019-02-19T07:13:25.437Z,99.90
2019-02-19T07:15:53.957Z,99.90
2019-02-19T07:18:22.506Z,99.90
2019-02-19T07:20:51.013Z,99.90
2019-02-19T07:23:19.458Z,99.90
2019-02-19T07:25:47.927Z,99.90
2019-02-19T07:28:16.438Z,99.90
2019-02-19T07:30:44.886Z,99.90
2019-02-19T07:33:13.431Z,99.90
2019-02-19T07:35:41.955Z,99.90
2019-02-19T07:38:10.555Z,99.20
2019-02-19T07:40:39.090Z,97.50
2019-02-19T07:43:07.607Z,95.30
2019-02-19T07:45:36.127Z,93.70
2019-02-19T07:48:04.666Z,94.00
2019-02-19T07:50:33.182Z,91.50
2019-02-19T07:53:01.632Z,90.20
2019-02-19T07:55:30.171Z,88.80
2019-02-19T07:57:58.763Z,85.00
2019-02-19T08:00:27.287Z,84.10
2019-02-19T08:02:55.844Z,82.40
2019-02-19T08:05:24.378Z,77.20
2019-02-19T08:07:52.830Z,72.50
2019-02-19T08:10:21.374Z,70.20
2019-02-19T08:12:49.836Z,72.60
2019-02-19T08:15:18.461Z,71.30
2019-02-19T08:17:46.991Z,67.40
2019-02-19T08:20:16.388Z,67.70
2019-02-19T08:22:45.042Z,65.60
2019-02-19T08:25:13.530Z,62.20
2019-02-19T08:27:42.059Z,59.80
2019-02-19T08:30:11.278Z,61.40
2019-02-19T08:32:39.940Z,58.10
2019-02-19T08:35:08.426Z,57.70
2019-02-19T08:37:36.983Z,58.70
2019-02-19T08:40:08.516Z,56.00
2019-02-19T08:42:37.062Z,55.00
2019-02-19T08:45:07.562Z,55.90
2019-02-19T08:47:42.258Z,54.90
2019-02-19T08:50:07.832Z,54.20
2019-02-19T08:52:36.364Z,55.60
2019-02-19T08:55:05.871Z,54.50
2019-02-19T08:57:34.403Z,54.30
2019-02-19T09:00:02.998Z,55.00
2019-02-19T09:02:31.547Z,56.80
2019-02-19T09:05:00.114Z,55.00
2019-02-19T09:07:28.638Z,53.90
2019-02-19T09:09:57.186Z,50.20
2019-02-19T09:12:25.647Z,49.40
2019-02-19T09:14:54.201Z,50.70
2019-02-19T09:17:22.741Z,49.50
2019-02-19T09:19:51.284Z,50.30
2019-02-19T09:22:19.813Z,49.60
2019-02-19T09:24:48.484Z,48.80
2019-02-19T09:27:16.959Z,47.30
2019-02-19T09:29:45.491Z,47.70
2019-02-19T09:32:14.060Z,47.60
2019-02-19T09:34:42.584Z,48.60
2019-02-19T09:37:11.186Z,47.80
2019-02-19T09:39:39.638Z,48.00
2019-02-19T09:42:08.182Z,47.60
2019-02-19T09:44:36.706Z,46.40
2019-02-19T09:47:05.240Z,46.30
2019-02-19T09:49:33.781Z,46.10
2019-02-19T09:52:02.237Z,45.50
2019-02-19T09:54:30.759Z,47.10
2019-02-19T09:56:59.305Z,47.10
2019-02-19T09:59:27.823Z,46.10
2019-02-19T10:01:56.365Z,45.60
2019-02-19T10:04:24.892Z,46.10
2019-02-19T10:06:53.415Z,46.70
2019-02-19T10:09:21.968Z,46.60
2019-02-19T10:11:50.513Z,47.00
2019-02-19T10:14:19.063Z,45.70
2019-02-19T10:16:47.604Z,45.90
2019-02-19T10:19:16.128Z,46.60
2019-02-19T10:21:45.779Z,46.60
2019-02-19T10:24:14.329Z,46.40
2019-02-19T10:26:42.865Z,45.70
2019-02-19T10:29:11.392Z,46.30
2019-02-19T10:31:39.937Z,45.50
2019-02-19T10:34:08.454Z,46.10
2019-02-19T10:36:38.574Z,45.60
2019-02-19T10:39:09.935Z,45.50
2019-02-19T10:41:38.386Z,46.30
2019-02-19T10:44:06.935Z,46.20
2019-02-19T10:46:35.522Z,45.50
2019-02-19T10:49:04.163Z,45.10
2019-02-19T10:51:32.692Z,45.50
2019-02-19T10:54:01.298Z,44.70
2019-02-19T10:56:29.818Z,44.40
2019-02-19T10:58:58.382Z,44.20
2019-02-19T11:01:26.975Z,43.40
2019-02-19T11:03:55.504Z,43.40
2019-02-19T11:06:24.107Z,43.20
2019-02-19T11:08:52.565Z,44.10
2019-02-19T11:11:21.176Z,43.50
2019-02-19T11:13:49.696Z,44.20
2019-02-19T11:16:18.170Z,43.20
2019-02-19T11:18:46.696Z,42.90
2019-02-19T11:21:19.483Z,43.70
2019-02-19T11:23:45.396Z,43.20
2019-02-19T11:26:14.871Z,43.10
2019-02-19T11:28:43.330Z,43.40
2019-02-19T11:31:11.865Z,43.90
2019-02-19T11:33:40.410Z,43.30
2019-02-19T11:36:08.937Z,42.90
2019-02-19T11:38:37.476Z,42.10
2019-02-19T11:41:06.018Z,42.50
2019-02-19T11:43:34.548Z,42.50
2019-02-19T11:46:03.073Z,42.70
2019-02-19T11:48:36.967Z,42.70
2019-02-19T11:51:01.806Z,43.90
2019-02-19T11:53:30.329Z,42.50
2019-02-19T11:56:06.114Z,42.00
2019-02-19T11:58:34.664Z,41.60
2019-02-19T12:01:04.488Z,42.10
2019-02-19T12:03:33.008Z,42.30
2019-02-19T12:06:01.553Z,42.30
2019-02-19T12:08:38.653Z,43.10
2019-02-19T12:11:00.288Z,42.30
2019-02-19T12:13:28.809Z,42.70
2019-02-19T12:15:57.364Z,42.50
2019-02-19T12:18:25.886Z,42.30
2019-02-19T12:20:54.473Z,41.90
2019-02-19T12:23:23.031Z,42.30
2019-02-19T12:25:51.478Z,42.80
2019-02-19T12:28:20.027Z,42.60
2019-02-19T12:30:48.630Z,42.00
2019-02-19T12:33:17.149Z,42.50
2019-02-19T12:35:45.698Z,43.10
2019-02-19T12:38:14.220Z,43.20
2019-02-19T12:40:42.739Z,42.80
2019-02-19T12:43:11.222Z,43.30
2019-02-19T12:45:39.739Z,43.30
2019-02-19T12:48:08.192Z,42.60
2019-02-19T12:50:36.741Z,41.90
2019-02-19T12:53:05.271Z,42.30
2019-02-19T12:55:33.825Z,42.80
2019-02-19T12:58:02.360Z,43.70
2019-02-19T13:00:32.830Z,42.80
2019-02-19T13:03:01.284Z,43.20
2019-02-19T13:05:29.831Z,42.60
2019-02-19T13:07:58.483Z,43.10
2019-02-19T13:10:27.281Z,42.30
2019-02-19T13:12:55.823Z,42.40
2019-02-19T13:15:24.426Z,42.40
2019-02-19T13:17:52.975Z,42.30
2019-02-19T13:20:21.495Z,41.60
2019-02-19T13:22:50.106Z,41.50
2019-02-19T13:25:18.558Z,42.10
2019-02-19T13:27:47.103Z,43.60
2019-02-19T13:30:20.243Z,42.20
2019-02-19T13:32:48.832Z,42.80
2019-02-19T13:35:17.528Z,43.50
2019-02-19T13:37:46.129Z,44.00
2019-02-19T13:40:17.181Z,43.70
2019-02-19T13:42:45.707Z,44.00
2019-02-19T13:45:15.306Z,44.20
2019-02-19T13:47:44.265Z,45.20
2019-02-19T13:50:21.895Z,44.80
2019-02-19T13:52:52.073Z,45.40
2019-02-19T13:55:22.246Z,44.30
2019-02-19T13:57:50.782Z,44.30
2019-02-19T14:00:21.022Z,43.70
2019-02-19T14:02:49.571Z,44.00
2019-02-19T14:05:18.171Z,44.10
2019-02-19T14:07:46.865Z,44.80
2019-02-19T14:10:15.400Z,44.40
2019-02-19T14:12:43.872Z,45.60
2019-02-19T14:15:14.480Z,45.80
2019-02-19T14:17:43.106Z,45.80
2019-02-19T14:20:13.270Z,45.40
2019-02-19T14:22:43.454Z,45.60
2019-02-19T14:25:16.422Z,45.30
2019-02-19T14:27:55.834Z,45.60
2019-02-19T14:30:26.024Z,45.60
2019-02-19T14:33:11.493Z,45.20
2019-02-19T14:35:47.436Z,45.70
2019-02-19T14:38:17.635Z,45.70
2019-02-19T14:40:47.884Z,46.10
2019-02-19T14:43:18.076Z,46.30
2019-02-19T14:45:48.243Z,46.70
2019-02-19T14:48:18.429Z,46.50
2019-02-19T14:51:03.331Z,47.50
2019-02-19T14:53:45.815Z,46.80
2019-02-19T14:56:32.192Z,47.20
2019-02-19T14:59:05.603Z,47.30
2019-02-19T15:01:50.786Z,47.90
2019-02-19T15:04:36.043Z,47.30
2019-02-19T15:07:24.234Z,47.10
2019-02-19T15:10:06.403Z,47.20
2019-02-19T15:12:45.452Z,47.70
2019-02-19T15:15:18.454Z,48.60
2019-02-19T15:17:48.627Z,49.10
2019-02-19T15:20:24.368Z,47.90
2019-02-19T15:23:06.720Z,48.10
2019-02-19T15:25:53.384Z,48.40
2019-02-19T15:28:36.521Z,49.00
2019-02-19T15:31:06.775Z,49.00
2019-02-19T15:33:39.578Z,50.20
2019-02-19T15:36:12.471Z,49.90
2019-02-19T15:38:58.930Z,50.40
2019-02-19T15:41:32.278Z,50.90
2019-02-19T15:44:05.050Z,51.50
2019-02-19T15:46:40.946Z,51.60
2019-02-19T15:49:16.680Z,50.80
2019-02-19T15:51:52.664Z,52.00
2019-02-19T15:54:31.569Z,52.40
2019-02-19T15:57:14.121Z,52.60
2019-02-19T15:59:44.297Z,51.40
2019-02-19T16:02:23.702Z,51.00
2019-02-19T16:04:56.829Z,50.70
2019-02-19T16:07:33.022Z,51.00
2019-02-19T16:10:09.213Z,51.30
2019-02-19T16:12:42.386Z,51.30
2019-02-19T16:15:18.308Z,51.10
2019-02-19T16:17:57.642Z,51.20
2019-02-19T16:20:27.927Z,51.20
2019-02-19T16:23:10.069Z,51.20
2019-02-19T16:25:43.294Z,50.90
2019-02-19T16:28:13.476Z,51.20
2019-02-19T16:30:46.823Z,51.60
2019-02-19T16:33:32.243Z,52.20
2019-02-19T16:36:11.304Z,52.30
2019-02-19T16:38:59.452Z,52.30
2019-02-19T16:41:35.338Z,52.40
2019-02-19T16:44:08.383Z,53.00
2019-02-19T16:46:41.314Z,53.30
2019-02-19T16:49:14.297Z,54.50
2019-02-19T16:51:44.471Z,55.00
2019-02-19T16:54:29.952Z,55.90
2019-02-19T16:57:00.208Z,56.00
2019-02-19T16:59:36.376Z,56.40
2019-02-19T17:02:21.943Z,58.70
2019-02-19T17:05:08.367Z,59.30
2019-02-19T17:07:38.603Z,60.90
2019-02-19T17:10:10.819Z,60.10
2019-02-19T17:12:50.116Z,60.20
2019-02-19T17:15:36.567Z,60.90
2019-02-19T17:18:09.672Z,61.10
2019-02-19T17:20:48.775Z,60.40
2019-02-19T17:23:18.962Z,60.30
2019-02-19T17:25:49.219Z,60.20
2019-02-19T17:28:22.378Z,60.60
2019-02-19T17:30:52.546Z,60.40
2019-02-19T17:33:34.918Z,60.90
2019-02-19T17:36:07.954Z,61.80
2019-02-19T17:38:41.125Z,62.60
2019-02-19T17:41:29.573Z,63.20
2019-02-19T17:43:59.773Z,63.30
2019-02-19T17:46:36.039Z,64.00
2019-02-19T17:49:12.299Z,63.40
2019-02-19T17:51:48.643Z,63.70
2019-02-19T17:54:21.591Z,63.80
2019-02-19T17:56:54.475Z,64.00
2019-02-19T17:59:30.430Z,63.80
2019-02-19T18:02:17.091Z,63.60
2019-02-19T18:04:47.292Z,63.30
2019-02-19T18:07:17.464Z,63.90
2019-02-19T18:09:53.407Z,63.70
2019-02-19T18:12:23.583Z,63.80
2019-02-19T18:15:10.042Z,64.20
2019-02-19T18:17:49.047Z,64.70
2019-02-19T18:20:17.596Z,64.70
2019-02-19T18:22:46.185Z,65.40
2019-02-19T18:25:14.664Z,66.10
2019-02-19T18:27:43.287Z,66.30
2019-02-19T18:30:11.943Z,66.00
2019-02-19T18:32:40.507Z,66.00
2019-02-19T18:35:09.191Z,66.00
2019-02-19T18:37:37.731Z,66.10
2019-02-19T18:40:06.399Z,66.60
2019-02-19T18:42:34.934Z,66.70
2019-02-19T18:45:06.246Z,67.30
2019-02-19T18:47:34.686Z,67.70
2019-02-19T18:50:04.428Z,68.20
2019-02-19T18:52:33.708Z,68.90
2019-02-19T18:55:02.384Z,69.30
2019-02-19T18:57:30.909Z,70.00
2019-02-19T18:59:59.436Z,70.10
2019-02-19T19:02:28.739Z,70.40
2019-02-19T19:04:57.302Z,71.60
2019-02-19T19:07:25.871Z,72.50
2019-02-19T19:09:54.407Z,73.30
2019-02-19T19:12:26.611Z,74.00
2019-02-19T19:14:55.139Z,77.40
2019-02-19T19:17:23.766Z,76.60
2019-02-19T19:19:52.435Z,77.40
2019-02-19T19:22:20.972Z,76.80
2019-02-19T19:24:49.525Z,76.20
2019-02-19T19:27:18.067Z,76.80
2019-02-19T19:29:46.628Z,76.30
2019-02-19T19:32:15.190Z,76.20
2019-02-19T19:34:43.719Z,76.50
2019-02-19T19:37:12.250Z,76.90
2019-02-19T19:39:40.784Z,76.20
2019-02-19T19:42:09.343Z,75.50
2019-02-19T19:44:37.877Z,75.10
2019-02-19T19:47:06.429Z,75.50
2019-02-19T19:49:34.965Z,75.40
2019-02-19T19:52:03.507Z,75.10
2019-02-19T19:54:32.051Z,75.20
2019-02-19T19:57:00.594Z,76.40
2019-02-19T19:59:30.019Z,77.40
2019-02-19T20:01:58.638Z,79.10
2019-02-19T20:04:27.191Z,79.50
2019-02-19T20:06:55.718Z,80.00
2019-02-19T20:09:24.210Z,79.90
2019-02-19T20:11:52.740Z,79.70
2019-02-19T20:14:21.354Z,79.70
2019-02-19T20:16:49.896Z,80.20
2019-02-19T20:19:18.427Z,80.20
2019-02-19T20:21:47.053Z,81.90
2019-02-19T20:24:15.582Z,83.70
2019-02-19T20:26:44.143Z,84.50
2019-02-19T20:29:12.671Z,84.20
2019-02-19T20:31:41.213Z,85.80
2019-02-19T20:34:09.774Z,85.90
2019-02-19T20:36:38.301Z,86.90
2019-02-19T20:39:07.285Z,88.80
2019-02-19T20:41:35.810Z,89.70
2019-02-19T20:44:04.340Z,90.40
2019-02-19T20:46:32.890Z,91.00
2019-02-19T20:49:01.416Z,90.70
2019-02-19T20:51:36.104Z,90.90
2019-02-19T20:54:00.135Z,92.70
2019-02-19T20:56:28.688Z,94.10
2019-02-19T20:58:58.171Z,94.70
2019-02-19T21:01:26.710Z,95.10
2019-02-19T21:03:55.243Z,95.40
2019-02-19T21:06:23.863Z,94.80
2019-02-19T21:08:52.393Z,95.20
2019-02-19T21:11:20.955Z,94.90
2019-02-19T21:13:49.407Z,95.40
2019-02-19T21:16:17.959Z,95.30
2019-02-19T21:18:46.491Z,95.90
2019-02-19T21:21:15.022Z,95.70
2019-02-19T21:23:43.500Z,95.10
2019-02-19T21:26:12.042Z,94.80
2019-02-19T21:28:40.575Z,95.10
2019-02-19T21:31:09.107Z,95.50
2019-02-19T21:33:37.659Z,95.80
2019-02-19T21:36:06.203Z,96.00
2019-02-19T21:38:34.732Z,96.40
2019-02-19T21:41:03.269Z,96.30
2019-02-19T21:43:31.800Z,96.50
2019-02-19T21:46:00.321Z,97.60
2019-02-19T21:48:28.862Z,97.80
2019-02-19T21:50:57.319Z,99.20
2019-02-19T21:53:25.863Z,99.90
2019-02-19T21:55:54.395Z,99.80
2019-02-19T21:58:22.928Z,99.40
2019-02-19T22:00:51.471Z,99.60
2019-02-19T22:03:19.927Z,99.40
2019-02-19T22:05:48.446Z,99.90
2019-02-19T22:08:16.993Z,99.60
2019-02-19T22:10:45.519Z,99.90
2019-02-19T22:13:14.050Z,99.90
2019-02-19T22:15:42.670Z,99.60
2019-02-19T22:18:11.199Z,99.70
2019-02-19T22:20:47.411Z,99.90
2019-02-19T22:23:15.948Z,99.90
2019-02-19T22:25:44.467Z,99.90
2019-02-19T22:28:13.082Z,99.90
2019-02-19T22:30:41.615Z,99.90
2019-02-19T22:33:10.211Z,99.90
2019-02-19T22:35:38.758Z,99.90
2019-02-19T22:38:07.354Z,99.90
2019-02-19T22:40:35.879Z,99.90
2019-02-19T22:43:04.495Z,99.90
2019-02-19T22:45:33.011Z,99.90
2019-02-19T22:48:01.488Z,99.90
2019-02-19T22:50:30.011Z,99.90
2019-02-19T22:52:58.558Z,99.90
2019-02-19T22:55:45.003Z,99.90
2019-02-19T22:58:13.477Z,99.90
2019-02-19T23:00:49.754Z,99.90
2019-02-19T23:03:26.017Z,99.90
2019-02-19T23:05:54.631Z,99.90
2019-02-19T23:08:23.150Z,99.90
2019-02-19T23:10:51.696Z,99.90
2019-02-19T23:13:20.211Z,99.90
2019-02-19T23:15:48.754Z,99.90
2019-02-19T23:18:17.297Z,99.90
2019-02-19T23:20:45.819Z,99.90
2019-02-19T23:23:14.295Z,99.90
2019-02-19T23:25:42.818Z,99.90
2019-02-19T23:28:11.411Z,99.90
2019-02-19T23:30:39.907Z,99.90
2019-02-19T23:33:08.434Z,99.90
2019-02-19T23:35:41.238Z,99.90
2019-02-19T23:38:09.780Z,99.90
2019-02-19T23:40:38.662Z,99.90
2019-02-19T23:43:07.208Z,99.90
2019-02-19T23:45:35.802Z,99.90
2019-02-19T23:48:04.326Z,99.90
2019-02-19T23:50:32.866Z,99.90
2019-02-19T23:53:01.310Z,99.90
2019-02-19T23:55:29.783Z,99.90
2019-02-19T23:57:58.318Z,99.90
